Alexis Rodriguez

Olheiro - Cruz Azul
22 Fev 2027
Segunda-feira
Processo

Personalidade

Adaptabilidade (3) Ambição (1) Controvérsia (7) Lealdade (15) Pressão (20) Profissionalismo (18) Espírito Esportivo (11) Temperamento (3)

Perfil

Estilo de Treinamento Democrático
Licença Continental A
Determinação 5
Gestão de Pessoas 11
Motivação 7
Disciplina 5
Satisfação no Trabalho
50%
Fadiga
0%
Função Olheiro
Salário 68.5K p/s
Contrato 14.03.2027

Desempenho

Comportamento Normal
Eficácia do Treinamento
18%
Desenvolvimento do Jogador
35%
Prevenção de Lesões
30%
Implementação Tática
40%

Eventos Recentes

Avaliou um jogador agora
Avaliou um jogador agora
Negociação de contrato iniciada agora
Avaliou um jogador agora
Negociação de contrato iniciada agora
Avaliou um jogador agora
Negociação de contrato iniciada agora
Negociação de contrato iniciada agora

Monitorando agora

157
Jogador Clube Status Habilidade Confiança Observado Última observação Último voto
Jamie Cumming Oxford United Ativo 124 / 133 40% 3 21.02.2027 -
Brian Bwire Polokwane City Ativo 96 / 83 40% 2 21.02.2027 -
Taye Ashby-Hammond Walsall Ativo 116 / 94 40% 1 21.02.2027 -
Cian Ashford Cardiff City Ativo 106 / 132 40% 4 18.02.2027 -
Kyreece Lisbie Colchester United Ativo 119 / 109 40% 2 18.02.2027 -
Ibrahim Cissoko Zwolle Ativo 129 / 132 40% 1 18.02.2027 -
Tom Booth Crewe Alexandra Ativo 107 / 111 40% 3 17.02.2027 -
Lorenzo Palmisani Frosinone Ativo 120 / 121 40% 1 17.02.2027 -
Bernardo Fontes Braga Ativo 136 / 135 40% 1 17.02.2027 -
Ali Soliman Masr El Makasa Ativo 113 / 126 40% 2 16.02.2027 -
Josh Keeley Luton Town Ativo 123 / 116 40% 2 16.02.2027 -
Mduduzi Shabalala Kaizer Chiefs Ativo 123 / 109 40% 2 16.02.2027 -
Jakub Surovčík Sparta Prague Ativo 123 / 124 40% 3 16.02.2027 -
Oleksandr Saputin Zorya Ativo 126 / 117 40% 1 16.02.2027 -
Vinicius Tobias Shakhtar Ativo 122 / 127 40% 2 12.02.2027 -
Moses Cobnan Krasnodar Ativo 112 / 125 40% 2 12.02.2027 -
Keagan Manyama Ajax Cape Town Ativo 106 / 120 40% 1 12.02.2027 -
Andreas Jungdal Westerlo Ativo 122 / 127 40% 1 09.02.2027 -
Nazar Voloshyn Dynamo Kyiv Ativo 125 / 126 40% 3 08.02.2027 -
Mamadou Diakhon Club Brugge Ativo 120 / 121 40% 1 08.02.2027 -
Keagan Hlatshwayo SuperSport United Ativo 116 / 112 40% 1 08.02.2027 -
Peter Federico Gornik Zabrze Ativo 133 / 135 40% 3 06.02.2027 -
Alexandr Sojka Viktoria Plzen Ativo 133 / 130 40% 1 06.02.2027 -
Jonathan Arteaga Veracruz Ativo 123 / 123 40% 1 05.02.2027 -
Majid Dejagah Gostaresh Foulad Ativo 121 / 116 40% 1 05.02.2027 -
Iker Benito Queretaro Ativo 127 / 115 40% 3 03.02.2027 -
Dries Fellaini KV Oostende Ativo 121 / 116 40% 2 03.02.2027 -
Armstrong Oko-Flex Levski Ativo 121 / 128 40% 1 03.02.2027 -
Michael Cooper Sheffield United Ativo 136 / 137 40% 4 31.01.2027 -
Edoardo Corvi Parma Ativo 138 / 140 40% 1 31.01.2027 -
Kirill Glebov CSKA Moscow Ativo 127 / 130 40% 2 30.01.2027 -
Sebastián Meza Huracán Ativo 128 / 124 40% 3 28.01.2027 -
Killian Cahill Leyton Orient Ativo 104 / 101 40% 3 28.01.2027 -
Nicolás Sumavil Platense Ativo 121 / 123 40% 2 28.01.2027 -
Juan Bezerra Zamalek Ativo 124 / 125 40% 1 27.01.2027 -
Malik Mothersille Stockport County Ativo 107 / 105 40% 1 27.01.2027 -
Stanley Mills Oxford United Ativo 110 / 122 40% 1 22.01.2027 -
Pedro Vite Pumas UNAM Ativo 117 / 132 40% 1 22.01.2027 -
Alex Luna Instituto Ativo 126 / 124 40% 1 20.01.2027 -
Haissem Hassan Bloemfontein Celtic Ativo 143 / 137 40% 4 18.01.2027 -
Daniel Arcila Leon Ativo 121 / 115 40% 1 18.01.2027 -
Nahuel Galardi Maipú Ativo 107 / 116 40% 3 17.01.2027 -
Jakub Stolarczyk Leicester City Ativo 125 / 134 40% 1 17.01.2027 -
Mandla Jali SuperSport United Ativo 123 / 125 40% 1 17.01.2027 -
Felipe San Juan Gimnasia y Esgrima Ativo 115 / 118 40% 2 16.01.2027 -
Nathan Bishop AFC Wimbledon Ativo 100 / 98 40% 1 16.01.2027 -
Felipe Zenobio Tigre Ativo 123 / 135 40% 4 14.01.2027 -
Iñaki Peña Panathinaikos Ativo 155 / 147 40% 1 14.01.2027 -
Ibrahim Tarek Masr El Makasa Ativo 121 / 112 40% 1 14.01.2027 -
Ivan Pakholiuk Kolos Ativo 117 / 107 40% 1 12.01.2027 -
Murphy Cooper Plymouth Argyle Ativo 119 / 104 40% 1 12.01.2027 -
Evidence Billiat Ajax Cape Town Ativo 122 / 121 40% 1 11.01.2027 -
Siyanda Ndlovu Hearts of Oak Ativo 108 / 125 40% 1 10.01.2027 -
Santiago Luján Al Ain Ativo 119 / 131 40% 1 10.01.2027 -
Mathias Kvistgaarden Norwich City Ativo 113 / 116 40% 1 08.01.2027 -
Joaquín Gho Argentinos Juniors Ativo 120 / 129 40% 1 05.01.2027 -
Marlon Gomes Shakhtar Rejeitado 140 / 134 40% 5 03.01.2027 Rejeitar
Fabián Suárez Chalares Aguilas Doradas Ativo 108 / 116 40% 1 03.01.2027 -
Salomón Rondón Pachuca Ativo 134 / 128 69% 1 02.01.2027 Aprovar
Luis Quintero Torreense Ativo 135 / 115 40% 1 01.01.2027 -
Roger Hinojo Espanyol Ativo 121 / 130 40% 1 01.01.2027 -
Dani Lorenzo Málaga Ativo 117 / 121 40% 1 01.01.2027 -
Lucas Cepeda Elche Ativo 135 / 137 40% 1 31.12.2026 -
Joaquín Enrico San Telmo Ativo 101 / 104 40% 2 28.12.2026 -
Leo Kokubo Sint-Truiden Ativo 108 / 105 40% 1 27.12.2026 -
Axel Alderweireld KV Oostende Ativo 133 / 130 40% 2 26.12.2026 -
Sam Tickle Wigan Athletic Ativo 129 / 120 40% 1 26.12.2026 -
Pol Tristán Bradford City Ativo 122 / 102 40% 1 25.12.2026 -
Ayrton Costa Boca Juniors Ativo 126 / 127 40% 4 24.12.2026 -
Martim Fernandes Porto Ativo 129 / 133 40% 1 24.12.2026 -
Aníbal Moreno River Plate Ativo 133 / 127 40% 1 24.12.2026 -
Kevin Lomónaco Independiente Ativo 135 / 130 40% 4 23.12.2026 -
Jaydee Canvot Crystal Palace Ativo 118 / 143 40% 1 23.12.2026 -
Arsenii Batahov Trabzonspor Rejeitado 131 / 132 40% 2 22.12.2026 Mais informações
Lukáš Červ Viktoria Plzen Ativo 124 / 119 40% 2 22.12.2026 -
Andrea Carboni Monza Ativo 140 / 120 40% 1 22.12.2026 -
Matvey Kislyak CSKA Moscow Ativo 129 / 129 40% 2 21.12.2026 -
Joaquim Tigres Ativo 137 / 127 40% 2 16.12.2026 -
Emil Breivik Molde Ativo 143 / 122 40% 1 16.12.2026 -
Iván Martín Racing Club Rejeitado 150 / 140 40% 3 15.12.2026 Rejeitar
Nacer Tielemans Mouscron Ativo 118 / 126 40% 1 15.12.2026 -
Sergio Quintero La Equidad Ativo 143 / 136 40% 4 14.12.2026 -
Archie Brown Fenerbahce Ativo 129 / 121 40% 1 14.12.2026 -
Facundo Vila Estudiantes Ativo 103 / 107 40% 1 13.12.2026 -
Anthony Patterson Wrexham Ativo 127 / 126 40% 1 13.12.2026 -
Bećir Omeragić Basel Ativo 134 / 139 40% 2 10.12.2026 -
Arturo Cipriani Astra Ativo 131 / 142 40% 2 10.12.2026 -
Rodrigo Huescas FC Copenhagen Ativo 139 / 142 40% 1 08.12.2026 -
Metinho Basel Ativo 118 / 129 40% 1 08.12.2026 -
Shuto Nakano Sanfrecce Hiroshima Ativo 122 / 121 40% 1 08.12.2026 -
Kings Kangwa Panathinaikos Ativo 134 / 140 40% 2 06.12.2026 -
Lennon Miller Udinese Ativo 125 / 143 40% 2 06.12.2026 -
Ilay Camara Anderlecht Ativo 131 / 126 40% 1 05.12.2026 -
Marcus Holmgren Pedersen Olympiacos Ativo 123 / 142 40% 1 04.12.2026 -
Federico Varese Racing Ativo 105 / 110 40% 1 03.12.2026 -
Santino Barbi Talleres Ativo 119 / 125 40% 2 30.11.2026 -
Santiago Silva Boston River Ativo 122 / 126 40% 1 30.11.2026 -
Julián Lobelos Arsenal Ativo 101 / 100 40% 1 27.11.2026 -
Lukas Gütlbauer Wolfsberger AC Ativo 125 / 116 40% 1 27.11.2026 -
Francisco Salerno Defensores Unidos Ativo 108 / 105 40% 2 25.11.2026 -
Nicolás Bolcato Independiente Rivadavia Ativo 107 / 123 40% 3 24.11.2026 -
Radek Vítek Middlesbrough Ativo 144 / 144 40% 2 23.11.2026 -
Ştefan Târnovanu FCSB Ativo 116 / 107 40% 1 23.11.2026 -
Gedson Fernandes Spartak Moscow Ativo 124 / 143 40% 2 21.11.2026 -
Liam Varela Veracruz Ativo 123 / 121 40% 1 21.11.2026 -
Michal Sadílek Slavia Prague Ativo 121 / 120 40% 1 21.11.2026 -
Kaveh Mohammadi Padideh Ativo 121 / 145 40% 1 18.11.2026 -
Sebastian Hernandez Cortulua Ativo 115 / 126 40% 2 17.11.2026 -
Lukas Jensen Millwall Ativo 105 / 131 40% 1 17.11.2026 -
Alexandr Chernikov Krasnodar Ativo 128 / 140 40% 2 15.11.2026 -
Riku Handa Gamba Osaka Ativo 134 / 131 40% 1 13.11.2026 -
Emanuele Valeri Parma Ativo 138 / 125 40% 1 12.11.2026 -
Pedro Henrique Shakhtar Ativo 128 / 133 40% 1 12.11.2026 -
Luis Ingolotti Atlético Tucumán Ativo 128 / 117 40% 2 10.11.2026 -
Pedro Malheiro Al Wasl Ativo 127 / 147 40% 2 08.11.2026 -
Yacine Adli Al-Shabab Ativo 147 / 149 40% 1 04.11.2026 -
Matheus Thuler Vissel Kobe Ativo 134 / 144 40% 1 04.11.2026 -
Riku Yamane Yokohama F. Marinos Ativo 143 / 119 40% 1 03.11.2026 -
Lorenzo Pirola Olympiacos Ativo 123 / 123 40% 1 03.11.2026 -
Mauro Silveira Junior Ativo 118 / 114 40% 1 03.11.2026 -
Luis Villegas Rodina M Ativo 78 / 94 40% 1 03.11.2026 -
Gastón Fernández Chacarita Juniors Ativo 98 / 93 40% 1 03.11.2026 -
Esteban Glellel Shonan Bellmare Ativo 106 / 122 40% 2 01.11.2026 -
Tomás Durso Atlético Tucumán Ativo 117 / 125 40% 1 01.11.2026 -
Diego Romero Universitario Ativo 115 / 120 40% 1 30.10.2026 -
Nahuel Manganelli Dinamo Batumi Ativo 103 / 119 40% 1 30.10.2026 -
Odin Bjørtuft Bodo/Glimt Ativo 123 / 138 40% 1 29.10.2026 -
Maxence Caqueret Como Ativo 126 / 138 40% 1 29.10.2026 -
Mattia Viti Sampdoria Ativo 124 / 144 40% 1 22.10.2026 -
Gabriel Pereira FC Copenhagen Ativo 121 / 144 40% 1 21.10.2026 -
Matías Palacios Al Ain Ativo 122 / 140 40% 1 21.10.2026 -
Eren Elmalı Galatasaray Ativo 130 / 141 40% 2 18.10.2026 -
Tim Jabol-Folcarelli Trabzonspor Ativo 128 / 145 40% 1 18.10.2026 -
Nahuel Yzaurralde Quilmes Ativo 94 / 101 40% 2 10.10.2026 -
Pablo Ramón Racing Club Ativo 130 / 138 40% 1 08.10.2026 -
Egoitz Arana Real Sociedad Ativo 95 / 109 40% 2 06.10.2026 -
Tomás Giménez Gimnasia y Esgrima Ativo 105 / 109 40% 1 01.10.2026 -
Vicente Bernedo Universidad Catolica Ativo 89 / 98 40% 1 30.09.2026 -
Luis Ureta San Luis Ativo 100 / 98 40% 1 24.09.2026 -
Luka Gavran Toronto FC Ativo 110 / 104 40% 1 23.09.2026 -
Adrián Alavés Ativo 116 / 114 40% 1 23.09.2026 -
Tiago Djaló Besiktas Ativo 121 / 131 40% 1 09.09.2026 -
Diego Costa Krasnodar Ativo 147 / 124 40% 1 09.09.2026 -
Ryuya Nishio Omiya Ardija Ativo 122 / 119 40% 1 09.09.2026 -
Gustavo Mantuan Zenit Ativo 133 / 141 40% 1 08.09.2026 -
Gabriel Pirani San Diego Football Club Ativo 136 / 141 40% 1 27.08.2026 -
Brian Gutiérrez Guadalajara Ativo 131 / 138 40% 1 27.08.2026 -
Antony Portland Timbers Ativo 131 / 135 40% 1 27.08.2026 -
Milan Škriniar Fenerbahce Ativo 164 / 163 40% 1 23.08.2026 -
Richard Ledezma Guadalajara Ativo 136 / 135 40% 1 23.08.2026 -
Jesús Angulo Tigres Ativo 136 / 131 40% 1 21.08.2026 -
Eduard Atuesta Orlando City Ativo 127 / 128 40% 1 19.08.2026 -
Federico Girotti Alianza Lima Ativo 127 / 124 40% 2 02.08.2026 -
Florián Monzón Atlas Ativo 115 / 117 40% 1 02.08.2026 -
Josh Sargent Toronto FC Ativo 123 / 128 40% 1 02.08.2026 -
Clemente Montes Universidad Catolica Ativo 121 / 127 40% 1 01.08.2026 -
Estanis Pedrola Oviedo Ativo 107 / 127 40% 1 01.08.2026 -